sensor_id;sensor_type;location;lat;lon;timestamp;pressure;altitude;pressure_sealevel;temperature;humidity
18509;BME280;9383;50.928;12.116;2022-07-23T00:01:22;98943.13;;;18.24;75.35
18509;BME280;9383;50.928;12.116;2022-07-23T00:03:49;98945.91;;;18.22;74.91
18509;BME280;9383;50.928;12.116;2022-07-23T00:06:15;98941.50;;;18.21;74.51
18509;BME280;9383;50.928;12.116;2022-07-23T00:08:42;98891.91;;;17.86;74.97
18509;BME280;9383;50.928;12.116;2022-07-23T00:11:08;98919.34;;;18.05;75.37
18509;BME280;9383;50.928;12.116;2022-07-23T00:13:34;98914.06;;;18.03;75.77
18509;BME280;9383;50.928;12.116;2022-07-23T00:16:00;98944.91;;;18.10;76.34
18509;BME280;9383;50.928;12.116;2022-07-23T00:18:26;98872.81;;;17.64;76.84
18509;BME280;9383;50.928;12.116;2022-07-23T00:20:53;98941.00;;;18.02;76.89
18509;BME280;9383;50.928;12.116;2022-07-23T00:23:19;98938.59;;;17.97;77.65
18509;BME280;9383;50.928;12.116;2022-07-23T00:25:48;98936.88;;;17.96;77.88
18509;BME280;9383;50.928;12.116;2022-07-23T00:28:14;98941.47;;;17.94;77.61
18509;BME280;9383;50.928;12.116;2022-07-23T00:30:40;98915.28;;;17.84;77.89
18509;BME280;9383;50.928;12.116;2022-07-23T00:33:07;98935.25;;;17.93;78.13
18509;BME280;9383;50.928;12.116;2022-07-23T00:35:37;98860.72;;;17.43;77.82
18509;BME280;9383;50.928;12.116;2022-07-23T00:38:08;98931.69;;;17.93;77.81
18509;BME280;9383;50.928;12.116;2022-07-23T00:40:38;98916.38;;;17.95;77.47
18509;BME280;9383;50.928;12.116;2022-07-23T00:43:05;98903.28;;;17.90;77.43
18509;BME280;9383;50.928;12.116;2022-07-23T00:45:31;98889.22;;;17.86;77.51
18509;BME280;9383;50.928;12.116;2022-07-23T00:47:58;98883.09;;;17.84;77.23
18509;BME280;9383;50.928;12.116;2022-07-23T00:50:24;98906.22;;;18.00;77.18
18509;BME280;9383;50.928;12.116;2022-07-23T00:52:52;98879.44;;;17.85;78.43
18509;BME280;9383;50.928;12.116;2022-07-23T00:55:19;98899.97;;;17.99;78.89
18509;BME280;9383;50.928;12.116;2022-07-23T00:57:45;98889.25;;;17.99;79.15
18509;BME280;9383;50.928;12.116;2022-07-23T01:00:14;98876.69;;;18.00;79.21
18509;BME280;9383;50.928;12.116;2022-07-23T01:02:41;98876.69;;;18.00;79.13
18509;BME280;9383;50.928;12.116;2022-07-23T01:05:09;98873.94;;;18.02;78.61
18509;BME280;9383;50.928;12.116;2022-07-23T01:07:37;98873.84;;;18.03;78.51
18509;BME280;9383;50.928;12.116;2022-07-23T01:10:04;98849.75;;;17.89;78.41
18509;BME280;9383;50.928;12.116;2022-07-23T01:12:30;98865.88;;;18.02;78.72
18509;BME280;9383;50.928;12.116;2022-07-23T01:15:00;98859.84;;;17.98;78.59
18509;BME280;9383;50.928;12.116;2022-07-23T01:17:27;98853.63;;;17.97;78.33
18509;BME280;9383;50.928;12.116;2022-07-23T01:19:54;98799.69;;;17.62;78.43
18509;BME280;9383;50.928;12.116;2022-07-23T01:22:20;98844.59;;;17.85;78.48
18509;BME280;9383;50.928;12.116;2022-07-23T01:24:47;98867.16;;;17.96;78.70
18509;BME280;9383;50.928;12.116;2022-07-23T01:27:13;98862.72;;;17.95;78.98
18509;BME280;9383;50.928;12.116;2022-07-23T01:29:40;98779.91;;;17.50;79.34
18509;BME280;9383;50.928;12.116;2022-07-23T01:32:06;98780.34;;;17.56;79.05
18509;BME280;9383;50.928;12.116;2022-07-23T01:34:32;98841.47;;;17.92;79.34
18509;BME280;9383;50.928;12.116;2022-07-23T01:36:59;98845.03;;;17.92;79.26
18509;BME280;9383;50.928;12.116;2022-07-23T01:39:25;98834.72;;;17.86;79.60
18509;BME280;9383;50.928;12.116;2022-07-23T01:41:51;98780.78;;;17.50;80.02
18509;BME280;9383;50.928;12.116;2022-07-23T01:44:17;98838.13;;;17.88;80.49
18509;BME280;9383;50.928;12.116;2022-07-23T01:46:43;98839.88;;;17.89;80.72
18509;BME280;9383;50.928;12.116;2022-07-23T01:49:09;98842.22;;;17.94;80.64
18509;BME280;9383;50.928;12.116;2022-07-23T01:51:35;98762.09;;;17.49;80.67
18509;BME280;9383;50.928;12.116;2022-07-23T01:54:02;98827.00;;;17.94;81.31
18509;BME280;9383;50.928;12.116;2022-07-23T01:56:28;98755.47;;;17.54;81.06
18509;BME280;9383;50.928;12.116;2022-07-23T01:58:54;98826.94;;;17.96;81.00
18509;BME280;9383;50.928;12.116;2022-07-23T02:01:20;98805.13;;;17.88;80.80
18509;BME280;9383;50.928;12.116;2022-07-23T02:03:46;98827.69;;;17.98;80.91
18509;BME280;9383;50.928;12.116;2022-07-23T02:06:12;98760.31;;;17.62;81.44
18509;BME280;9383;50.928;12.116;2022-07-23T02:08:38;98799.66;;;17.89;81.32
18509;BME280;9383;50.928;12.116;2022-07-23T02:11:04;98718.47;;;17.34;81.70
18509;BME280;9383;50.928;12.116;2022-07-23T02:13:30;98806.94;;;17.87;81.77
18509;BME280;9383;50.928;12.116;2022-07-23T02:15:56;98781.47;;;17.67;81.69
18509;BME280;9383;50.928;12.116;2022-07-23T02:18:22;98827.56;;;17.99;81.88
18509;BME280;9383;50.928;12.116;2022-07-23T02:20:48;98836.56;;;17.98;81.86
18509;BME280;9383;50.928;12.116;2022-07-23T02:23:14;98769.44;;;17.60;82.25
18509;BME280;9383;50.928;12.116;2022-07-23T02:25:40;98847.41;;;17.97;82.37
18509;BME280;9383;50.928;12.116;2022-07-23T02:28:06;98796.25;;;17.60;82.55
18509;BME280;9383;50.928;12.116;2022-07-23T02:30:33;98834.38;;;17.78;82.42
18509;BME280;9383;50.928;12.116;2022-07-23T02:32:59;98863.16;;;17.89;82.48
18509;BME280;9383;50.928;12.116;2022-07-23T02:35:25;98873.97;;;17.87;82.67
18509;BME280;9383;50.928;12.116;2022-07-23T02:37:51;98867.69;;;17.74;83.02
18509;BME280;9383;50.928;12.116;2022-07-23T02:40:18;98883.59;;;17.77;83.32
18509;BME280;9383;50.928;12.116;2022-07-23T02:42:44;98860.13;;;17.53;83.78
18509;BME280;9383;50.928;12.116;2022-07-23T02:45:10;98892.34;;;17.66;83.83
18509;BME280;9383;50.928;12.116;2022-07-23T02:47:36;98882.19;;;17.56;84.09
18509;BME280;9383;50.928;12.116;2022-07-23T02:50:03;98873.81;;;17.48;84.07
18509;BME280;9383;50.928;12.116;2022-07-23T02:52:31;98870.09;;;17.51;84.35
18509;BME280;9383;50.928;12.116;2022-07-23T02:54:57;98871.91;;;17.50;85.03
18509;BME280;9383;50.928;12.116;2022-07-23T02:57:23;98856.97;;;17.46;85.17
18509;BME280;9383;50.928;12.116;2022-07-23T02:59:49;98857.94;;;17.45;84.82
18509;BME280;9383;50.928;12.116;2022-07-23T03:02:15;98861.47;;;17.46;84.77
18509;BME280;9383;50.928;12.116;2022-07-23T03:04:41;98817.03;;;17.14;85.06
18509;BME280;9383;50.928;12.116;2022-07-23T03:07:08;98809.50;;;17.06;84.94
18509;BME280;9383;50.928;12.116;2022-07-23T03:09:34;98856.41;;;17.41;85.07
18509;BME280;9383;50.928;12.116;2022-07-23T03:12:00;98826.41;;;17.21;85.59
18509;BME280;9383;50.928;12.116;2022-07-23T03:14:26;98766.88;;;16.88;85.36
18509;BME280;9383;50.928;12.116;2022-07-23T03:16:54;98785.13;;;16.96;85.30
18509;BME280;9383;50.928;12.116;2022-07-23T03:19:20;98827.63;;;17.30;84.57
18509;BME280;9383;50.928;12.116;2022-07-23T03:21:46;98824.84;;;17.32;84.55
18509;BME280;9383;50.928;12.116;2022-07-23T03:24:12;98775.06;;;17.00;84.89
18509;BME280;9383;50.928;12.116;2022-07-23T03:26:38;98824.22;;;17.28;84.83
18509;BME280;9383;50.928;12.116;2022-07-23T03:29:05;98758.84;;;16.88;84.89
18509;BME280;9383;50.928;12.116;2022-07-23T03:31:31;98814.75;;;17.22;85.04
18509;BME280;9383;50.928;12.116;2022-07-23T03:33:58;98815.78;;;17.20;85.24
18509;BME280;9383;50.928;12.116;2022-07-23T03:36:25;98812.44;;;17.16;85.57
18509;BME280;9383;50.928;12.116;2022-07-23T03:38:52;98813.69;;;17.10;85.77
18509;BME280;9383;50.928;12.116;2022-07-23T03:41:20;98770.69;;;16.84;85.66
18509;BME280;9383;50.928;12.116;2022-07-23T03:43:46;98765.34;;;16.70;86.32
18509;BME280;9383;50.928;12.116;2022-07-23T03:46:13;98804.44;;;16.87;86.34
18509;BME280;9383;50.928;12.116;2022-07-23T03:48:39;98839.44;;;16.98;86.50
18509;BME280;9383;50.928;12.116;2022-07-23T03:51:05;98829.41;;;16.87;86.72
18509;BME280;9383;50.928;12.116;2022-07-23T03:53:31;98800.53;;;16.64;87.02
18509;BME280;9383;50.928;12.116;2022-07-23T03:55:57;98876.44;;;16.63;87.29
18509;BME280;9383;50.928;12.116;2022-07-23T03:58:23;98929.47;;;16.56;87.24
18509;BME280;9383;50.928;12.116;2022-07-23T04:00:49;98997.69;;;16.94;87.49
18509;BME280;9383;50.928;12.116;2022-07-23T04:03:15;98875.31;;;16.36;87.18
18509;BME280;9383;50.928;12.116;2022-07-23T04:05:41;98909.59;;;16.60;87.07
18509;BME280;9383;50.928;12.116;2022-07-23T04:08:07;98934.25;;;16.80;87.07
18509;BME280;9383;50.928;12.116;2022-07-23T04:10:34;98858.03;;;16.27;86.76
18509;BME280;9383;50.928;12.116;2022-07-23T04:13:00;98860.44;;;16.32;86.73
18509;BME280;9383;50.928;12.116;2022-07-23T04:15:26;98793.41;;;16.05;86.60
18509;BME280;9383;50.928;12.116;2022-07-23T04:17:52;98828.59;;;16.27;86.33
18509;BME280;9383;50.928;12.116;2022-07-23T04:20:19;98842.25;;;16.37;86.09
18509;BME280;9383;50.928;12.116;2022-07-23T04:22:45;98863.81;;;16.50;86.00
18509;BME280;9383;50.928;12.116;2022-07-23T04:25:11;98792.25;;;16.09;85.53
18509;BME280;9383;50.928;12.116;2022-07-23T04:27:37;98782.78;;;16.03;85.11
18509;BME280;9383;50.928;12.116;2022-07-23T04:30:04;98885.31;;;16.63;84.85
18509;BME280;9383;50.928;12.116;2022-07-23T04:32:30;98773.03;;;16.02;84.39
18509;BME280;9383;50.928;12.116;2022-07-23T04:34:56;98805.47;;;16.26;83.83
18509;BME280;9383;50.928;12.116;2022-07-23T04:37:23;98867.13;;;16.68;84.00
18509;BME280;9383;50.928;12.116;2022-07-23T04:39:49;98825.06;;;16.41;83.91
18509;BME280;9383;50.928;12.116;2022-07-23T04:42:15;98862.75;;;16.67;83.73
18509;BME280;9383;50.928;12.116;2022-07-23T04:44:41;98849.56;;;16.64;83.74
18509;BME280;9383;50.928;12.116;2022-07-23T04:47:07;98831.03;;;16.61;83.33
18509;BME280;9383;50.928;12.116;2022-07-23T04:49:33;98865.06;;;16.73;82.95
18509;BME280;9383;50.928;12.116;2022-07-23T04:51:59;98836.84;;;16.53;82.84
18509;BME280;9383;50.928;12.116;2022-07-23T04:54:26;98896.03;;;16.78;82.73
18509;BME280;9383;50.928;12.116;2022-07-23T04:56:52;98919.34;;;16.76;82.42
18509;BME280;9383;50.928;12.116;2022-07-23T04:59:18;98892.34;;;16.50;82.39
18509;BME280;9383;50.928;12.116;2022-07-23T05:01:44;98895.31;;;16.59;82.37
18509;BME280;9383;50.928;12.116;2022-07-23T05:04:10;98912.97;;;16.78;82.56
18509;BME280;9383;50.928;12.116;2022-07-23T05:06:36;98866.38;;;16.66;82.26
18509;BME280;9383;50.928;12.116;2022-07-23T05:09:02;98874.41;;;16.81;82.28
18509;BME280;9383;50.928;12.116;2022-07-23T05:11:28;98813.81;;;16.51;82.21
18509;BME280;9383;50.928;12.116;2022-07-23T05:13:54;98845.28;;;16.76;82.05
18509;BME280;9383;50.928;12.116;2022-07-23T05:16:20;98860.25;;;16.93;82.04
18509;BME280;9383;50.928;12.116;2022-07-23T05:18:46;98837.72;;;16.97;82.25
18509;BME280;9383;50.928;12.116;2022-07-23T05:21:12;98791.75;;;16.76;81.21
18509;BME280;9383;50.928;12.116;2022-07-23T05:23:38;98844.50;;;16.88;81.27
18509;BME280;9383;50.928;12.116;2022-07-23T05:26:04;98862.19;;;17.06;81.18
18509;BME280;9383;50.928;12.116;2022-07-23T05:28:31;98824.06;;;16.87;81.29
18509;BME280;9383;50.928;12.116;2022-07-23T05:30:57;98877.59;;;17.17;80.76
18509;BME280;9383;50.928;12.116;2022-07-23T05:33:23;98852.66;;;17.01;80.67
18509;BME280;9383;50.928;12.116;2022-07-23T05:35:49;98893.00;;;17.27;80.48
18509;BME280;9383;50.928;12.116;2022-07-23T05:38:15;98889.94;;;17.34;80.17
18509;BME280;9383;50.928;12.116;2022-07-23T05:40:41;98904.84;;;17.38;79.86
18509;BME280;9383;50.928;12.116;2022-07-23T05:43:07;98897.34;;;17.43;79.89
18509;BME280;9383;50.928;12.116;2022-07-23T05:45:33;98879.22;;;17.34;79.87
18509;BME280;9383;50.928;12.116;2022-07-23T05:47:59;98892.00;;;17.43;79.58
18509;BME280;9383;50.928;12.116;2022-07-23T05:50:25;98842.03;;;17.14;79.29
18509;BME280;9383;50.928;12.116;2022-07-23T05:52:52;98930.16;;;17.61;79.03
18509;BME280;9383;50.928;12.116;2022-07-23T05:55:18;98945.19;;;17.64;78.80
18509;BME280;9383;50.928;12.116;2022-07-23T05:57:44;98896.88;;;17.36;78.86
18509;BME280;9383;50.928;12.116;2022-07-23T06:00:11;98929.88;;;17.66;79.53
18509;BME280;9383;50.928;12.116;2022-07-23T06:02:38;98899.81;;;17.61;79.19
18509;BME280;9383;50.928;12.116;2022-07-23T06:05:06;98929.19;;;17.77;79.05
18509;BME280;9383;50.928;12.116;2022-07-23T06:07:34;98943.41;;;17.92;78.77
18509;BME280;9383;50.928;12.116;2022-07-23T06:10:00;98891.78;;;17.61;77.88
18509;BME280;9383;50.928;12.116;2022-07-23T06:12:26;98943.75;;;18.00;77.98
18509;BME280;9383;50.928;12.116;2022-07-23T06:14:52;98932.94;;;18.02;77.89
18509;BME280;9383;50.928;12.116;2022-07-23T06:17:18;98903.16;;;17.92;77.41
18509;BME280;9383;50.928;12.116;2022-07-23T06:19:44;98907.69;;;17.91;77.47
18509;BME280;9383;50.928;12.116;2022-07-23T06:22:11;98894.34;;;17.77;77.81
18509;BME280;9383;50.928;12.116;2022-07-23T06:24:37;98926.13;;;18.10;77.80
18509;BME280;9383;50.928;12.116;2022-07-23T06:27:04;98922.34;;;18.13;77.87
18509;BME280;9383;50.928;12.116;2022-07-23T06:29:30;98918.41;;;18.19;78.01
18509;BME280;9383;50.928;12.116;2022-07-23T06:31:56;98898.56;;;18.08;78.09
18509;BME280;9383;50.928;12.116;2022-07-23T06:34:22;98902.53;;;18.16;78.21
18509;BME280;9383;50.928;12.116;2022-07-23T06:36:48;98897.03;;;18.04;77.94
18509;BME280;9383;50.928;12.116;2022-07-23T06:39:14;98854.34;;;17.86;78.12
18509;BME280;9383;50.928;12.116;2022-07-23T06:41:40;98903.28;;;18.18;77.78
18509;BME280;9383;50.928;12.116;2022-07-23T06:44:06;98925.22;;;18.37;77.73
18509;BME280;9383;50.928;12.116;2022-07-23T06:46:32;98930.09;;;18.45;77.60
18509;BME280;9383;50.928;12.116;2022-07-23T06:48:58;98917.09;;;18.52;77.84
18509;BME280;9383;50.928;12.116;2022-07-23T06:51:24;98820.69;;;17.95;77.87
18509;BME280;9383;50.928;12.116;2022-07-23T06:53:50;98917.97;;;18.65;77.80
18509;BME280;9383;50.928;12.116;2022-07-23T06:56:16;98851.59;;;18.28;77.57
18509;BME280;9383;50.928;12.116;2022-07-23T06:58:42;98876.50;;;18.44;77.26
18509;BME280;9383;50.928;12.116;2022-07-23T07:01:08;98899.09;;;18.67;76.77
18509;BME280;9383;50.928;12.116;2022-07-23T07:03:35;98893.06;;;18.63;76.81
18509;BME280;9383;50.928;12.116;2022-07-23T07:06:01;98901.75;;;18.80;77.14
18509;BME280;9383;50.928;12.116;2022-07-23T07:08:28;98917.66;;;18.96;76.87
18509;BME280;9383;50.928;12.116;2022-07-23T07:10:54;98909.50;;;18.97;76.85
18509;BME280;9383;50.928;12.116;2022-07-23T07:13:20;98891.47;;;19.00;76.73
18509;BME280;9383;50.928;12.116;2022-07-23T07:15:46;98916.06;;;19.19;76.60
18509;BME280;9383;50.928;12.116;2022-07-23T07:18:12;98872.88;;;18.96;76.59
18509;BME280;9383;50.928;12.116;2022-07-23T07:20:38;98898.03;;;19.21;76.34
18509;BME280;9383;50.928;12.116;2022-07-23T07:23:04;98918.81;;;19.44;76.24
18509;BME280;9383;50.928;12.116;2022-07-23T07:25:30;98924.38;;;19.53;76.07
18509;BME280;9383;50.928;12.116;2022-07-23T07:27:56;98908.50;;;19.37;74.56
18509;BME280;9383;50.928;12.116;2022-07-23T07:30:22;98949.22;;;19.57;74.21
18509;BME280;9383;50.928;12.116;2022-07-23T07:32:48;98949.88;;;19.61;74.25
18509;BME280;9383;50.928;12.116;2022-07-23T07:35:14;98875.00;;;19.17;74.22
18509;BME280;9383;50.928;12.116;2022-07-23T07:37:40;98899.06;;;19.32;73.63
18509;BME280;9383;50.928;12.116;2022-07-23T07:40:07;98909.16;;;19.41;73.54
18509;BME280;9383;50.928;12.116;2022-07-23T07:42:34;98928.56;;;19.58;72.82
18509;BME280;9383;50.928;12.116;2022-07-23T07:45:00;98929.09;;;19.63;72.97
18509;BME280;9383;50.928;12.116;2022-07-23T07:47:27;98965.19;;;19.85;72.96
18509;BME280;9383;50.928;12.116;2022-07-23T07:49:53;98949.91;;;19.85;72.93
18509;BME280;9383;50.928;12.116;2022-07-23T07:52:19;98891.69;;;19.60;72.86
18509;BME280;9383;50.928;12.116;2022-07-23T07:54:45;98941.94;;;19.96;73.20
18509;BME280;9383;50.928;12.116;2022-07-23T07:57:11;98896.50;;;19.67;73.13
18509;BME280;9383;50.928;12.116;2022-07-23T07:59:37;98959.94;;;20.07;72.36
18509;BME280;9383;50.928;12.116;2022-07-23T08:02:03;98939.13;;;19.98;72.41
18509;BME280;9383;50.928;12.116;2022-07-23T08:04:29;98963.81;;;20.16;72.58
18509;BME280;9383;50.928;12.116;2022-07-23T08:06:55;98914.38;;;19.93;72.37
18509;BME280;9383;50.928;12.116;2022-07-23T08:09:21;98948.28;;;20.20;71.81
18509;BME280;9383;50.928;12.116;2022-07-23T08:11:47;98930.25;;;20.09;71.39
18509;BME280;9383;50.928;12.116;2022-07-23T08:14:14;98925.78;;;19.96;71.21
18509;BME280;9383;50.928;12.116;2022-07-23T08:16:40;98936.84;;;20.05;71.84
18509;BME280;9383;50.928;12.116;2022-07-23T08:19:06;98907.94;;;19.95;72.48
18509;BME280;9383;50.928;12.116;2022-07-23T08:21:32;98938.25;;;20.22;72.20
18509;BME280;9383;50.928;12.116;2022-07-23T08:23:58;98909.16;;;20.03;72.14
18509;BME280;9383;50.928;12.116;2022-07-23T08:26:24;98929.66;;;20.17;72.48
18509;BME280;9383;50.928;12.116;2022-07-23T08:28:50;98979.13;;;20.51;72.23
18509;BME280;9383;50.928;12.116;2022-07-23T08:31:16;98978.28;;;20.51;71.43
18509;BME280;9383;50.928;12.116;2022-07-23T08:33:43;98927.28;;;20.25;71.63
18509;BME280;9383;50.928;12.116;2022-07-23T08:36:09;98924.22;;;20.30;71.90
18509;BME280;9383;50.928;12.116;2022-07-23T08:38:35;98985.22;;;20.78;71.79
18509;BME280;9383;50.928;12.116;2022-07-23T08:41:02;98975.69;;;20.85;71.11
18509;BME280;9383;50.928;12.116;2022-07-23T08:43:32;98979.75;;;20.91;70.96
18509;BME280;9383;50.928;12.116;2022-07-23T08:46:01;98935.25;;;20.74;70.58
18509;BME280;9383;50.928;12.116;2022-07-23T08:48:34;98980.41;;;21.06;70.71
18509;BME280;9383;50.928;12.116;2022-07-23T08:51:05;98943.75;;;20.92;70.24
18509;BME280;9383;50.928;12.116;2022-07-23T08:53:33;98926.19;;;20.75;69.94
18509;BME280;9383;50.928;12.116;2022-07-23T08:56:03;98962.03;;;21.00;69.42
18509;BME280;9383;50.928;12.116;2022-07-23T08:58:30;98972.94;;;20.98;69.52
18509;BME280;9383;50.928;12.116;2022-07-23T09:00:57;99005.56;;;21.18;69.49
18509;BME280;9383;50.928;12.116;2022-07-23T09:03:29;99010.09;;;21.17;69.53
18509;BME280;9383;50.928;12.116;2022-07-23T09:05:58;98903.88;;;20.61;69.24
18509;BME280;9383;50.928;12.116;2022-07-23T09:08:42;98950.38;;;20.88;69.43
18509;BME280;9383;50.928;12.116;2022-07-23T09:11:11;99001.88;;;21.19;69.35
18509;BME280;9383;50.928;12.116;2022-07-23T09:13:47;98954.53;;;20.92;69.13
18509;BME280;9383;50.928;12.116;2022-07-23T09:16:17;99001.75;;;21.20;68.93
18509;BME280;9383;50.928;12.116;2022-07-23T09:18:52;98911.72;;;20.64;68.75
18509;BME280;9383;50.928;12.116;2022-07-23T09:21:27;98991.94;;;21.19;68.77
18509;BME280;9383;50.928;12.116;2022-07-23T09:24:06;98933.94;;;20.79;68.99
18509;BME280;9383;50.928;12.116;2022-07-23T09:26:41;98970.34;;;20.97;69.22
18509;BME280;9383;50.928;12.116;2022-07-23T09:31:55;98998.06;;;20.99;70.53
18509;BME280;9383;50.928;12.116;2022-07-23T09:34:27;98978.47;;;20.72;70.73
18509;BME280;9383;50.928;12.116;2022-07-23T09:37:18;99007.03;;;20.75;71.40
18509;BME280;9383;50.928;12.116;2022-07-23T09:39:45;99021.19;;;20.65;71.92
18509;BME280;9383;50.928;12.116;2022-07-23T09:42:25;98992.09;;;20.46;72.41
18509;BME280;9383;50.928;12.116;2022-07-23T09:44:56;99006.28;;;20.48;72.72
18509;BME280;9383;50.928;12.116;2022-07-23T09:47:25;99013.53;;;20.48;73.05
18509;BME280;9383;50.928;12.116;2022-07-23T09:50:05;99012.16;;;20.42;73.79
18509;BME280;9383;50.928;12.116;2022-07-23T09:52:48;99024.09;;;20.38;74.25
18509;BME280;9383;50.928;12.116;2022-07-23T09:55:17;99026.94;;;20.36;74.18
18509;BME280;9383;50.928;12.116;2022-07-23T09:57:44;99028.75;;;20.36;74.29
18509;BME280;9383;50.928;12.116;2022-07-23T10:00:12;99039.75;;;20.33;74.30
18509;BME280;9383;50.928;12.116;2022-07-23T10:02:39;99038.59;;;20.24;74.54
18509;BME280;9383;50.928;12.116;2022-07-23T10:05:07;99038.81;;;20.21;75.08
18509;BME280;9383;50.928;12.116;2022-07-23T10:07:37;99027.78;;;20.13;75.56
18509;BME280;9383;50.928;12.116;2022-07-23T10:10:05;99023.06;;;20.03;76.12
18509;BME280;9383;50.928;12.116;2022-07-23T10:12:31;99028.66;;;20.00;76.92
18509;BME280;9383;50.928;12.116;2022-07-23T10:15:17;99028.66;;;20.00;77.08
18509;BME280;9383;50.928;12.116;2022-07-23T10:17:43;99026.19;;;19.97;77.41
18509;BME280;9383;50.928;12.116;2022-07-23T10:20:09;99028.66;;;19.87;77.58
18509;BME280;9383;50.928;12.116;2022-07-23T10:23:14;99016.63;;;19.80;78.13
18509;BME280;9383;50.928;12.116;2022-07-23T10:25:48;98989.75;;;19.67;78.18
18509;BME280;9383;50.928;12.116;2022-07-23T10:37:12;98972.72;;;19.79;78.00
18509;BME280;9383;50.928;12.116;2022-07-23T10:39:40;98971.75;;;19.80;77.52
18509;BME280;9383;50.928;12.116;2022-07-23T10:42:11;99040.31;;;20.25;77.59
18509;BME280;9383;50.928;12.116;2022-07-23T10:44:42;99045.56;;;20.27;77.79
18509;BME280;9383;50.928;12.116;2022-07-23T10:47:11;99036.09;;;20.34;78.27
18509;BME280;9383;50.928;12.116;2022-07-23T10:49:50;98977.31;;;20.03;77.86
18509;BME280;9383;50.928;12.116;2022-07-23T10:52:25;99047.81;;;20.57;77.65
18509;BME280;9383;50.928;12.116;2022-07-23T10:57:28;99051.44;;;20.69;76.89
18509;BME280;9383;50.928;12.116;2022-07-23T11:02:31;98967.47;;;20.40;75.32
18509;BME280;9383;50.928;12.116;2022-07-23T11:05:05;99045.34;;;21.03;75.42
18509;BME280;9383;50.928;12.116;2022-07-23T11:07:32;98941.22;;;20.55;75.47
18509;BME280;9383;50.928;12.116;2022-07-23T11:09:59;99046.13;;;21.28;74.74
18509;BME280;9383;50.928;12.116;2022-07-23T11:15:13;99043.69;;;21.36;73.14
18509;BME280;9383;50.928;12.116;2022-07-23T11:20:22;99039.91;;;21.50;72.47
18509;BME280;9383;50.928;12.116;2022-07-23T11:22:52;99011.56;;;21.33;71.33
18509;BME280;9383;50.928;12.116;2022-07-23T11:27:54;98977.84;;;21.16;71.02
18509;BME280;9383;50.928;12.116;2022-07-23T11:35:47;99044.91;;;21.43;71.62
18509;BME280;9383;50.928;12.116;2022-07-23T11:38:21;99026.75;;;21.34;71.46
18509;BME280;9383;50.928;12.116;2022-07-23T11:40:54;99048.50;;;21.55;71.42
18509;BME280;9383;50.928;12.116;2022-07-23T11:43:22;99046.03;;;21.63;71.41
18509;BME280;9383;50.928;12.116;2022-07-23T11:45:52;99044.38;;;21.74;71.29
18509;BME280;9383;50.928;12.116;2022-07-23T11:48:29;99033.69;;;21.84;71.42
18509;BME280;9383;50.928;12.116;2022-07-23T11:50:57;99028.78;;;22.00;70.64
18509;BME280;9383;50.928;12.116;2022-07-23T11:53:27;99021.88;;;22.08;70.50
18509;BME280;9383;50.928;12.116;2022-07-23T11:58:30;99004.94;;;22.17;69.57
18509;BME280;9383;50.928;12.116;2022-07-23T12:03:23;99019.28;;;22.61;68.14
18509;BME280;9383;50.928;12.116;2022-07-23T12:05:57;98969.22;;;22.46;67.35
18509;BME280;9383;50.928;12.116;2022-07-23T12:08:23;98985.47;;;22.67;66.46
18509;BME280;9383;50.928;12.116;2022-07-23T12:10:50;98985.81;;;22.74;66.20
18509;BME280;9383;50.928;12.116;2022-07-23T12:13:21;99010.94;;;22.86;65.39
18509;BME280;9383;50.928;12.116;2022-07-23T12:15:56;98920.91;;;22.31;64.78
18509;BME280;9383;50.928;12.116;2022-07-23T12:18:25;98995.78;;;22.73;65.20
18509;BME280;9383;50.928;12.116;2022-07-23T12:20:54;98949.13;;;22.50;64.78
18509;BME280;9383;50.928;12.116;2022-07-23T12:23:24;98973.13;;;22.65;65.74
18509;BME280;9383;50.928;12.116;2022-07-23T12:25:52;99001.97;;;22.85;65.32
18509;BME280;9383;50.928;12.116;2022-07-23T12:28:28;98997.09;;;22.79;65.72
18509;BME280;9383;50.928;12.116;2022-07-23T12:31:01;98987.75;;;22.83;65.25
18509;BME280;9383;50.928;12.116;2022-07-23T12:33:34;99008.19;;;22.97;65.62
18509;BME280;9383;50.928;12.116;2022-07-23T12:36:04;99005.53;;;23.07;65.96
18509;BME280;9383;50.928;12.116;2022-07-23T12:38:57;99007.72;;;23.13;64.38
18509;BME280;9383;50.928;12.116;2022-07-23T12:41:25;98982.16;;;22.96;65.06
18509;BME280;9383;50.928;12.116;2022-07-23T12:43:51;99015.19;;;23.21;65.15
18509;BME280;9383;50.928;12.116;2022-07-23T12:46:20;98997.97;;;23.01;64.28
18509;BME280;9383;50.928;12.116;2022-07-23T12:48:53;98923.66;;;22.53;64.91
18509;BME280;9383;50.928;12.116;2022-07-23T12:51:27;98989.50;;;22.94;64.83
18509;BME280;9383;50.928;12.116;2022-07-23T12:54:09;99007.81;;;23.02;64.91
18509;BME280;9383;50.928;12.116;2022-07-23T12:56:39;98995.59;;;23.08;64.87
18509;BME280;9383;50.928;12.116;2022-07-23T12:59:12;99008.19;;;23.18;64.41
18509;BME280;9383;50.928;12.116;2022-07-23T13:01:56;99017.28;;;23.17;64.38
18509;BME280;9383;50.928;12.116;2022-07-23T13:04:25;98993.69;;;22.98;64.22
18509;BME280;9383;50.928;12.116;2022-07-23T13:06:58;99011.63;;;22.99;64.62
18509;BME280;9383;50.928;12.116;2022-07-23T13:09:29;99012.72;;;22.97;65.65
18509;BME280;9383;50.928;12.116;2022-07-23T13:11:57;99007.16;;;22.88;66.30
18509;BME280;9383;50.928;12.116;2022-07-23T13:14:24;98967.88;;;22.73;65.64
18509;BME280;9383;50.928;12.116;2022-07-23T13:16:52;99018.34;;;23.05;65.61
18509;BME280;9383;50.928;12.116;2022-07-23T13:19:19;98923.56;;;22.43;65.04
18509;BME280;9383;50.928;12.116;2022-07-23T13:21:48;99021.16;;;23.03;65.57
18509;BME280;9383;50.928;12.116;2022-07-23T13:24:14;99026.19;;;23.08;65.41
18509;BME280;9383;50.928;12.116;2022-07-23T13:26:40;99021.50;;;23.10;65.50
18509;BME280;9383;50.928;12.116;2022-07-23T13:29:07;98973.13;;;22.86;65.17
18509;BME280;9383;50.928;12.116;2022-07-23T13:31:35;98978.78;;;22.83;65.09
18509;BME280;9383;50.928;12.116;2022-07-23T13:34:03;98926.97;;;22.56;65.70
18509;BME280;9383;50.928;12.116;2022-07-23T13:36:29;98996.38;;;22.98;64.86
18509;BME280;9383;50.928;12.116;2022-07-23T13:38:55;99021.38;;;23.12;65.20